Time;durP1;ratioP1;P1;durP2;ratioP2;P2;SDS_P1;SDS_P2;PMS_P1;PMS_P2;Temp;Humidity;BMP_temperature;BMP_pressure;BME280_temperature;BME280_humidity;BME280_pressure;Samples;Min_cycle;Max_cycle;Signal;HPM_P1;HPM_P2
2023/04/20 00:01:51;;;;;;;22.38;13.95;;;;;;;7.13;100.00;100730.66;5076720;28;20056;-73
2023/04/20 00:04:17;;;;;;;24.75;14.45;;;;;;;7.10;100.00;100737.25;5076546;28;20090;-72
2023/04/20 00:06:43;;;;;;;21.98;14.05;;;;;;;7.10;100.00;100745.78;5076477;28;20465;-72
2023/04/20 00:09:12;;;;;;;23.73;14.00;;;;;;;7.15;100.00;100742.38;5075037;28;20036;-73
2023/04/20 00:11:37;;;;;;;24.38;15.43;;;;;;;7.18;100.00;100737.78;5076061;28;20032;-72
2023/04/20 00:14:03;;;;;;;25.15;14.88;;;;;;;7.15;100.00;100741.56;5074955;28;20024;-73
2023/04/20 00:16:28;;;;;;;21.95;12.65;;;;;;;7.14;100.00;100746.47;5076442;28;20028;-73
2023/04/20 00:18:54;;;;;;;22.85;13.40;;;;;;;7.14;100.00;100740.78;5074712;28;20423;-71
2023/04/20 00:21:22;;;;;;;20.15;13.05;;;;;;;7.15;100.00;100738.72;5076033;28;20032;-72
2023/04/20 00:23:50;;;;;;;19.05;13.27;;;;;;;7.22;100.00;100741.34;5076050;28;20095;-71
2023/04/20 00:26:17;;;;;;;20.92;13.70;;;;;;;7.24;100.00;100738.81;5074641;28;20405;-73
2023/04/20 00:28:42;;;;;;;20.63;13.18;;;;;;;7.24;100.00;100736.75;5076190;28;20333;-71
2023/04/20 00:31:08;;;;;;;23.05;13.82;;;;;;;7.22;100.00;100744.19;5075947;28;20462;-72
2023/04/20 00:33:33;;;;;;;20.65;13.55;;;;;;;7.17;100.00;100736.22;5075754;28;20466;-72
2023/04/20 00:35:59;;;;;;;20.80;12.73;;;;;;;7.13;100.00;100742.00;5075726;28;20036;-72
2023/04/20 00:38:24;;;;;;;21.17;13.25;;;;;;;7.08;100.00;100739.75;5075694;28;20025;-72
2023/04/20 00:40:52;;;;;;;25.95;13.95;;;;;;;7.10;100.00;100752.28;5075411;28;20024;-74
2023/04/20 00:43:18;;;;;;;23.98;14.18;;;;;;;7.10;100.00;100740.09;5075774;28;20480;-71
2023/04/20 00:45:45;;;;;;;23.95;13.75;;;;;;;7.03;100.00;100735.44;5075546;28;20102;-72
2023/04/20 00:48:10;;;;;;;22.42;13.80;;;;;;;7.14;100.00;100743.63;5074260;28;20032;-72
2023/04/20 00:50:36;;;;;;;25.88;13.50;;;;;;;7.17;100.00;100744.75;5074408;28;20370;-72
2023/04/20 00:53:02;;;;;;;22.88;14.13;;;;;;;7.21;100.00;100749.06;5075352;28;20116;-72
2023/04/20 00:55:29;;;;;;;21.33;13.88;;;;;;;7.27;100.00;100743.59;5074345;28;20617;-72
2023/04/20 00:57:54;;;;;;;23.50;14.98;;;;;;;7.29;100.00;100744.72;5075300;28;20067;-71
2023/04/20 01:00:21;;;;;;;22.08;14.57;;;;;;;7.30;100.00;100743.47;5075597;28;20060;-72
2023/04/20 01:02:46;;;;;;;24.42;15.73;;;;;;;7.32;100.00;100743.00;5075540;28;20032;-71
2023/04/20 01:05:12;;;;;;;26.15;16.25;;;;;;;7.35;100.00;100737.19;5075458;28;20025;-72
2023/04/20 01:07:38;;;;;;;23.05;14.70;;;;;;;7.36;100.00;100743.66;5075178;28;20032;-73
2023/04/20 01:10:05;;;;;;;23.73;15.10;;;;;;;7.36;100.00;100743.66;5074701;28;20056;-72
2023/04/20 01:12:30;;;;;;;25.92;15.60;;;;;;;7.38;100.00;100735.47;5074118;28;20036;-73
2023/04/20 01:14:56;;;;;;;24.25;15.35;;;;;;;7.37;100.00;100740.34;5073301;28;20028;-75
2023/04/20 01:17:23;;;;;;;23.70;14.60;;;;;;;7.38;100.00;100733.41;5073147;28;20089;-72
2023/04/20 01:19:49;;;;;;;25.75;15.32;;;;;;;7.38;100.00;100736.25;5073782;28;20028;-73
2023/04/20 01:22:21;;;;;;;27.67;16.30;;;;;;;7.40;100.00;100728.06;5055039;28;20085;-72
2023/04/20 01:24:46;;;;;;;33.65;17.45;;;;;;;7.34;100.00;100735.59;5054879;28;20052;-71
2023/04/20 01:27:15;;;;;;;21.70;14.55;;;;;;;7.29;100.00;100729.69;5073088;28;20082;-72
2023/04/20 01:29:40;;;;;;;23.63;14.75;;;;;;;7.24;100.00;100728.25;5072776;28;20480;-73
2023/04/20 01:32:05;;;;;;;24.20;15.30;;;;;;;7.23;100.00;100725.84;5072518;28;20024;-73
2023/04/20 01:34:31;;;;;;;21.48;14.48;;;;;;;7.21;100.00;100725.53;5072750;28;20032;-73
2023/04/20 01:36:57;;;;;;;23.45;15.02;;;;;;;7.23;100.00;100729.50;5072624;28;20371;-72
2023/04/20 01:39:23;;;;;;;23.58;13.63;;;;;;;7.22;100.00;100733.59;5054279;28;20119;-72
2023/04/20 01:41:48;;;;;;;24.30;15.25;;;;;;;7.21;100.00;100726.31;5072573;28;20024;-72
2023/04/20 01:44:13;;;;;;;23.75;14.43;;;;;;;7.19;100.00;100725.97;5072973;28;20408;-72
2023/04/20 01:46:39;;;;;;;23.02;13.18;;;;;;;7.17;100.00;100725.66;5073803;28;20042;-73
2023/04/20 01:49:05;;;;;;;22.85;15.32;;;;;;;7.15;100.00;100724.50;5074778;28;20021;-73
2023/04/20 01:51:32;;;;;;;23.08;14.32;;;;;;;7.16;100.00;100717.59;5074064;28;20103;-73
2023/04/20 01:53:58;;;;;;;20.65;13.65;;;;;;;7.22;100.00;100724.28;5073156;28;20465;-73
2023/04/20 01:56:23;;;;;;;23.25;14.93;;;;;;;7.22;100.00;100719.41;5074360;28;20078;-73
2023/04/20 01:58:49;;;;;;;21.02;14.18;;;;;;;7.24;100.00;100714.03;5074349;28;20428;-73
2023/04/20 02:01:14;;;;;;;23.30;13.90;;;;;;;7.23;100.00;100712.44;5074095;28;20454;-72
2023/04/20 02:03:39;;;;;;;24.92;14.40;;;;;;;7.23;100.00;100718.13;5073911;28;20515;-72
2023/04/20 02:06:05;;;;;;;21.65;14.95;;;;;;;7.19;100.00;100705.28;5073991;28;20028;-74
2023/04/20 02:08:31;;;;;;;24.73;14.25;;;;;;;7.15;100.00;100701.78;5073760;28;20139;-73
2023/04/20 02:10:57;;;;;;;19.23;13.65;;;;;;;7.14;100.00;100703.81;5074271;28;20065;-73
2023/04/20 02:13:22;;;;;;;22.58;15.10;;;;;;;7.16;100.00;100706.22;5073988;28;20111;-72
2023/04/20 02:15:48;;;;;;;21.85;14.40;;;;;;;7.18;100.00;100709.38;5074249;28;20103;-72
2023/04/20 02:18:15;;;;;;;25.10;15.30;;;;;;;7.17;100.00;100708.63;5072418;28;20384;-72
2023/04/20 02:20:41;;;;;;;25.58;14.68;;;;;;;7.17;100.00;100719.97;5073743;28;20051;-72
2023/04/20 02:23:06;;;;;;;21.48;13.68;;;;;;;7.19;100.00;100716.66;5073419;28;20362;-73
2023/04/20 02:25:32;;;;;;;25.55;15.00;;;;;;;7.22;100.00;100722.25;5073364;28;20028;-73
2023/04/20 02:27:57;;;;;;;22.75;14.60;;;;;;;7.15;100.00;100701.78;5073531;28;20090;-73
2023/04/20 02:30:22;;;;;;;21.48;14.07;;;;;;;7.26;100.00;100699.38;5073565;28;20100;-71
2023/04/20 02:32:48;;;;;;;24.33;14.73;;;;;;;7.22;100.00;100704.38;5072153;28;20097;-72
2023/04/20 02:35:13;;;;;;;26.58;15.43;;;;;;;7.15;100.00;100694.06;5073439;28;20025;-73
2023/04/20 02:37:39;;;;;;;22.60;14.40;;;;;;;7.13;100.00;100704.31;5073156;28;20031;-72
2023/04/20 02:40:06;;;;;;;21.45;14.10;;;;;;;7.04;100.00;100685.91;5073278;28;20062;-73
2023/04/20 02:42:31;;;;;;;24.65;15.73;;;;;;;7.10;100.00;100706.00;5073509;28;20512;-73
2023/04/20 02:44:57;;;;;;;22.80;15.00;;;;;;;7.08;100.00;100708.50;5073372;28;20020;-74
2023/04/20 02:47:22;;;;;;;21.45;14.13;;;;;;;7.05;100.00;100706.59;5072083;28;20028;-73
2023/04/20 02:49:47;;;;;;;26.35;15.02;;;;;;;7.03;100.00;100718.41;5073360;28;20028;-73
2023/04/20 02:52:13;;;;;;;25.27;15.43;;;;;;;7.04;100.00;100700.09;5072954;28;20500;-72
2023/04/20 02:54:39;;;;;;;23.80;14.43;;;;;;;7.05;100.00;100704.53;5073458;28;20074;-73
2023/04/20 02:57:04;;;;;;;26.48;14.88;;;;;;;7.03;100.00;100704.19;5072877;28;20044;-72
2023/04/20 02:59:30;;;;;;;25.25;14.80;;;;;;;7.03;100.00;100701.34;5072566;28;20028;-72
2023/04/20 03:01:55;;;;;;;23.67;14.73;;;;;;;7.04;100.00;100705.78;5073217;28;20029;-74
2023/04/20 03:04:21;;;;;;;26.38;15.18;;;;;;;7.06;100.00;100703.28;5072900;28;20107;-74
2023/04/20 03:06:48;;;;;;;24.27;13.13;;;;;;;7.06;100.00;100696.81;5073521;28;20024;-73
2023/04/20 03:09:14;;;;;;;22.48;13.95;;;;;;;7.10;100.00;100698.28;5072986;28;20021;-72
2023/04/20 03:11:40;;;;;;;22.40;14.40;;;;;;;7.10;100.00;100703.16;5073263;28;20074;-74
2023/04/20 03:14:05;;;;;;;23.75;14.40;;;;;;;7.06;100.00;100711.03;5073010;28;20070;-74
2023/04/20 03:16:31;;;;;;;21.27;15.30;;;;;;;7.04;100.00;100702.94;5071769;28;20032;-73
2023/04/20 03:18:56;;;;;;;24.20;15.02;;;;;;;7.04;100.00;100700.09;5072969;28;20020;-72
2023/04/20 03:21:22;;;;;;;24.85;15.23;;;;;;;7.07;100.00;100701.25;5072789;28;20032;-71
2023/04/20 03:23:48;;;;;;;25.20;14.65;;;;;;;7.09;100.00;100699.53;5073308;28;20021;-72
2023/04/20 03:26:13;;;;;;;24.27;14.60;;;;;;;7.12;100.00;100703.50;5071703;28;20021;-73
2023/04/20 03:28:40;;;;;;;24.02;14.80;;;;;;;7.13;100.00;100701.47;5073189;28;20024;-72
2023/04/20 03:31:05;;;;;;;26.13;15.98;;;;;;;7.16;100.00;100704.19;5071401;28;20032;-72
2023/04/20 03:33:31;;;;;;;28.10;15.75;;;;;;;7.13;100.00;100701.47;5073000;28;20074;-72
2023/04/20 03:35:56;;;;;;;25.90;15.57;;;;;;;7.05;100.00;100703.75;5072814;28;20489;-72
2023/04/20 03:38:21;;;;;;;25.80;16.45;;;;;;;6.96;100.00;100704.47;5072721;28;20109;-72
2023/04/20 03:40:47;;;;;;;26.48;16.42;;;;;;;6.95;100.00;100710.59;5072686;28;20024;-74
2023/04/20 03:43:12;;;;;;;27.30;15.80;;;;;;;6.92;100.00;100720.03;5072656;28;20104;-73
2023/04/20 03:45:38;;;;;;;25.20;16.20;;;;;;;6.93;100.00;100716.72;5072792;28;20466;-73
2023/04/20 03:48:04;;;;;;;27.95;16.58;;;;;;;6.93;100.00;100721.63;5072725;28;20533;-73
2023/04/20 03:50:29;;;;;;;26.17;15.25;;;;;;;6.93;100.00;100722.41;5071359;28;20024;-73
2023/04/20 03:52:54;;;;;;;24.13;16.00;;;;;;;6.96;100.00;100726.38;5072394;28;20143;-72
2023/04/20 03:55:20;;;;;;;21.98;15.02;;;;;;;6.95;100.00;100721.94;5073016;28;20078;-73
2023/04/20 03:57:45;;;;;;;27.92;15.68;;;;;;;6.96;100.00;100729.22;5072641;28;20473;-72
2023/04/20 04:00:11;;;;;;;24.58;14.70;;;;;;;6.96;100.00;100729.22;5071214;28;20303;-74
2023/04/20 04:02:37;;;;;;;29.80;16.92;;;;;;;6.98;100.00;100726.72;5072674;28;20378;-73
2023/04/20 04:05:02;;;;;;;24.17;14.70;;;;;;;6.95;100.00;100721.94;5072278;28;20353;-73
2023/04/20 04:07:28;;;;;;;25.80;15.75;;;;;;;6.97;100.00;100733.66;5072492;28;20385;-74
2023/04/20 04:09:53;;;;;;;25.30;15.52;;;;;;;6.99;100.00;100719.78;5074562;28;20021;-73
2023/04/20 04:12:19;;;;;;;25.67;16.05;;;;;;;7.05;100.00;100723.63;5075012;28;20024;-73
2023/04/20 04:14:44;;;;;;;27.35;15.77;;;;;;;7.12;100.00;100733.97;5076094;28;20020;-72
2023/04/20 04:17:10;;;;;;;26.95;15.55;;;;;;;7.19;100.00;100730.88;5074971;28;20024;-72
2023/04/20 04:19:35;;;;;;;23.38;14.15;;;;;;;7.28;100.00;100725.25;5074743;28;20024;-72
2023/04/20 04:22:00;;;;;;;25.20;15.73;;;;;;;7.33;100.00;100719.78;5074706;28;20021;-70
2023/04/20 04:24:26;;;;;;;25.23;16.10;;;;;;;7.43;100.00;100727.13;5076275;28;20012;-73
2023/04/20 04:26:55;;;;;;;25.33;15.60;;;;;;;7.51;100.00;100728.50;5076356;28;20032;-72
2023/04/20 04:29:21;;;;;;;25.00;14.70;;;;;;;7.64;100.00;100730.47;5074687;28;20361;-73
2023/04/20 04:31:46;;;;;;;28.13;15.40;;;;;;;7.69;100.00;100729.88;5075116;28;20465;-73
2023/04/20 04:34:12;;;;;;;27.90;16.60;;;;;;;7.76;100.00;100741.00;5074984;28;20017;-74
2023/04/20 04:36:38;;;;;;;27.05;17.00;;;;;;;7.82;100.00;100736.28;5074864;28;20499;-73
2023/04/20 04:39:03;;;;;;;25.63;15.95;;;;;;;7.87;100.00;100736.47;5075461;28;20041;-74
2023/04/20 04:41:29;;;;;;;27.08;15.93;;;;;;;7.94;100.00;100743.97;5073693;28;20020;-74
2023/04/20 04:43:58;;;;;;;28.25;15.85;;;;;;;8.01;100.00;100742.91;5075351;28;20082;-75
2023/04/20 04:46:26;;;;;;;33.00;16.10;;;;;;;8.04;100.00;100742.78;5075661;28;20044;-76
2023/04/20 04:48:52;;;;;;;28.40;15.80;;;;;;;8.07;100.00;100749.56;5075299;28;20085;-74
2023/04/20 04:51:18;;;;;;;28.60;16.35;;;;;;;8.11;100.00;100744.56;5075805;28;20029;-75
2023/04/20 04:53:46;;;;;;;28.08;15.27;;;;;;;8.17;100.00;100749.19;5075537;28;20032;-75
2023/04/20 04:56:12;;;;;;;28.60;16.38;;;;;;;8.23;100.00;100746.53;5075474;28;20036;-75
2023/04/20 04:58:38;;;;;;;27.63;16.48;;;;;;;8.29;100.00;100750.38;5075639;28;20430;-75
2023/04/20 05:01:04;;;;;;;31.33;16.52;;;;;;;8.33;100.00;100740.44;5075568;28;20025;-79
2023/04/20 05:03:30;;;;;;;28.35;16.73;;;;;;;8.37;100.00;100734.59;5076146;28;20414;-77
2023/04/20 05:05:56;;;;;;;28.92;17.23;;;;;;;8.42;100.00;100733.19;5074026;28;20103;-76
2023/04/20 05:08:25;;;;;;;26.73;16.35;;;;;;;8.44;100.00;100736.38;5075098;28;20533;-76
2023/04/20 05:10:52;;;;;;;27.17;17.05;;;;;;;8.47;100.00;100741.13;5074711;28;20127;-75
2023/04/20 05:13:18;;;;;;;28.23;16.23;;;;;;;8.52;100.00;100737.66;5074787;28;20029;-75
2023/04/20 05:15:44;;;;;;;31.30;16.25;;;;;;;8.52;100.00;100741.31;5073516;28;20020;-77
2023/04/20 05:18:18;;;;;;;28.92;17.92;;;;;;;8.53;100.00;100747.81;5073574;28;20040;-73
2023/04/20 05:20:43;;;;;;;30.30;17.25;;;;;;;8.57;100.00;100749.25;5073056;28;20036;-75
2023/04/20 05:23:09;;;;;;;30.88;19.10;;;;;;;8.58;100.00;100745.13;5072407;28;20040;-74
2023/04/20 05:25:44;;;;;;;28.42;17.00;;;;;;;8.62;100.00;100747.84;5073241;28;20020;-75
2023/04/20 05:28:12;;;;;;;30.63;17.52;;;;;;;8.64;100.00;100753.88;5072218;28;20079;-74
2023/04/20 05:30:49;;;;;;;30.08;17.60;;;;;;;8.61;100.00;100752.75;5073468;28;20020;-74
2023/04/20 05:33:15;;;;;;;37.30;20.00;;;;;;;8.59;100.00;100751.63;5073866;28;20044;-75
2023/04/20 05:35:40;;;;;;;51.10;19.65;;;;;;;8.60;100.00;100756.88;5074001;28;20076;-75
2023/04/20 05:38:06;;;;;;;37.20;17.92;;;;;;;8.61;100.00;100763.34;5072953;28;20024;-75
2023/04/20 05:40:34;;;;;;;41.33;18.70;;;;;;;8.70;100.00;100763.41;5072253;28;20108;-75
2023/04/20 05:43:00;;;;;;;32.28;18.70;;;;;;;8.75;100.00;100759.94;5072361;28;20036;-73
2023/04/20 05:45:25;;;;;;;35.30;20.08;;;;;;;8.78;100.00;100756.94;5072297;28;20033;-74
2023/04/20 05:47:54;;;;;;;37.22;19.58;;;;;;;8.84;100.00;100771.38;5072197;28;20055;-74
2023/04/20 05:50:21;;;;;;;47.00;20.95;;;;;;;8.86;100.00;100768.81;5072216;28;20088;-74
2023/04/20 05:52:47;;;;;;;41.00;20.98;;;;;;;8.88;100.00;100765.50;5072640;28;20123;-74
2023/04/20 05:55:12;;;;;;;38.25;19.60;;;;;;;8.78;100.00;100754.09;5073878;28;20155;-75
2023/04/20 05:57:41;;;;;;;41.13;21.50;;;;;;;8.83;100.00;100770.56;5073333;28;20117;-76
2023/04/20 06:00:10;;;;;;;38.53;20.73;;;;;;;8.93;100.00;100770.59;5074098;28;20377;-75
2023/04/20 06:02:35;;;;;;;34.15;20.63;;;;;;;8.96;100.00;100772.50;5074169;28;20377;-75
2023/04/20 06:05:01;;;;;;;32.28;19.67;;;;;;;8.91;100.00;100773.91;5073955;28;20025;-75
2023/04/20 06:07:27;;;;;;;36.50;21.70;;;;;;;8.89;100.00;100782.16;5072389;28;20037;-73
2023/04/20 06:09:52;;;;;;;37.10;19.80;;;;;;;8.87;100.00;100775.31;5074146;28;20032;-73
2023/04/20 06:12:17;;;;;;;34.70;20.35;;;;;;;8.88;100.00;100777.69;5074158;28;20024;-73
2023/04/20 06:14:43;;;;;;;31.98;19.48;;;;;;;8.95;100.00;100791.66;5074277;28;20021;-74
2023/04/20 06:17:08;;;;;;;30.38;19.33;;;;;;;9.03;100.00;100790.09;5074120;28;20522;-77
2023/04/20 06:19:34;;;;;;;35.05;20.63;;;;;;;9.11;100.00;100791.38;5074055;28;20084;-77
2023/04/20 06:21:59;;;;;;;36.03;20.63;;;;;;;9.12;100.00;100789.34;5074200;28;20097;-77
2023/04/20 06:24:26;;;;;;;36.15;20.20;;;;;;;9.21;100.00;100786.50;5073816;28;20055;-76
2023/04/20 06:26:52;;;;;;;39.58;21.95;;;;;;;9.29;100.00;100801.25;5073584;28;20074;-77
2023/04/20 06:29:17;;;;;;;33.28;21.35;;;;;;;9.30;100.00;100795.06;5074016;28;20024;-77
2023/04/20 06:31:42;;;;;;;32.92;20.55;;;;;;;9.47;100.00;100796.38;5073718;28;20077;-77
2023/04/20 06:34:08;;;;;;;31.73;20.48;;;;;;;9.60;100.00;100799.06;5074000;28;20047;-76
2023/04/20 06:36:33;;;;;;;34.78;20.35;;;;;;;9.65;100.00;100796.38;5073576;28;20466;-74
2023/04/20 06:38:59;;;;;;;40.13;22.48;;;;;;;9.70;100.00;100803.53;5073604;28;20032;-76
2023/04/20 06:41:24;;;;;;;35.45;21.20;;;;;;;9.83;100.00;100798.50;5073897;28;20024;-77
2023/04/20 06:43:50;;;;;;;35.10;20.77;;;;;;;9.96;100.00;100804.84;5073657;28;20025;-76
2023/04/20 06:46:15;;;;;;;39.65;21.95;;;;;;;9.99;100.00;100805.94;5073429;28;20025;-75
2023/04/20 06:48:41;;;;;;;39.47;22.85;;;;;;;10.02;100.00;100807.84;5073147;28;20477;-75
2023/04/20 06:51:06;;;;;;;32.35;20.50;;;;;;;10.06;100.00;100806.41;5073239;28;20025;-75
2023/04/20 06:53:32;;;;;;;32.45;20.65;;;;;;;10.20;100.00;100809.88;5072926;28;20124;-75
2023/04/20 06:55:57;;;;;;;37.40;20.77;;;;;;;10.30;100.00;100805.72;5073232;28;20025;-74
2023/04/20 06:58:22;;;;;;;39.33;21.60;;;;;;;10.48;100.00;100811.44;5073000;28;20065;-74
2023/04/20 07:00:48;;;;;;;37.78;21.13;;;;;;;10.64;100.00;100813.09;5073341;28;20024;-76
2023/04/20 07:03:13;;;;;;;32.25;19.67;;;;;;;10.73;100.00;100816.72;5073264;28;20373;-75
2023/04/20 07:05:38;;;;;;;38.10;21.52;;;;;;;10.74;100.00;100804.03;5072935;28;20025;-75
2023/04/20 07:08:04;;;;;;;36.80;22.23;;;;;;;10.96;100.00;100803.78;5073262;28;20108;-75
2023/04/20 07:10:29;;;;;;;35.15;22.60;;;;;;;11.11;100.00;100803.88;5072562;28;20377;-75
2023/04/20 07:12:55;;;;;;;32.97;20.70;;;;;;;11.25;100.00;100806.06;5073011;28;20024;-76
2023/04/20 07:15:21;;;;;;;40.55;20.20;;;;;;;11.40;100.00;100804.84;5073016;28;20051;-77
2023/04/20 07:17:47;;;;;;;38.53;22.05;;;;;;;11.51;100.00;100807.16;5072896;28;20032;-69
2023/04/20 07:20:12;;;;;;;32.75;20.83;;;;;;;11.54;100.00;100803.31;5072771;28;20028;-68
2023/04/20 07:22:38;;;;;;;33.45;20.90;;;;;;;11.62;100.00;100810.25;5073078;28;20527;-69
2023/04/20 07:25:05;;;;;;;34.10;21.77;;;;;;;11.71;100.00;100809.41;5072661;28;20020;-70
2023/04/20 07:27:34;;;;;;;36.38;22.45;;;;;;;11.82;100.00;100806.75;5073257;28;20032;-69
2023/04/20 07:30:00;;;;;;;37.85;23.55;;;;;;;11.75;100.00;100810.81;5073082;28;20089;-71
2023/04/20 07:32:26;;;;;;;46.88;22.08;;;;;;;11.92;100.00;100816.06;5073025;28;20036;-69
2023/04/20 07:34:51;;;;;;;36.45;20.58;;;;;;;12.11;100.00;100815.41;5054848;28;20082;-68
2023/04/20 07:37:17;;;;;;;38.47;22.42;;;;;;;12.28;100.00;100816.53;5072823;28;20462;-70
2023/04/20 07:39:42;;;;;;;39.15;22.35;;;;;;;12.37;100.00;100815.69;5072539;28;20027;-68
2023/04/20 07:42:07;;;;;;;37.53;23.00;;;;;;;12.39;100.00;100818.06;5072406;28;20021;-70
2023/04/20 07:44:34;;;;;;;37.05;22.63;;;;;;;12.52;100.00;100818.56;5074126;28;20024;-69
2023/04/20 07:47:00;;;;;;;40.22;23.60;;;;;;;12.69;100.00;100817.56;5076687;28;20517;-68
2023/04/20 07:49:25;;;;;;;38.05;24.17;;;;;;;12.83;100.00;100826.66;5076980;28;20027;-69
2023/04/20 07:51:51;;;;;;;42.75;23.52;;;;;;;12.88;100.00;100825.97;5076408;28;20082;-68
2023/04/20 07:54:16;;;;;;;38.67;22.83;;;;;;;12.86;100.00;100820.72;5076270;28;20024;-72
2023/04/20 07:56:42;;;;;;;42.30;23.15;;;;;;;12.77;100.00;100831.50;5076388;28;20028;-72
2023/04/20 07:59:07;;;;;;;37.33;22.17;;;;;;;12.76;100.00;100827.84;5076365;28;20430;-71
2023/04/20 08:01:33;;;;;;;34.40;23.38;;;;;;;12.65;100.00;100819.06;5076152;28;20028;-69
2023/04/20 08:03:59;;;;;;;35.35;22.50;;;;;;;12.52;100.00;100816.47;5076164;28;20017;-70
2023/04/20 08:06:26;;;;;;;44.13;23.15;;;;;;;12.61;100.00;100824.97;5075108;28;20025;-69
2023/04/20 08:08:51;;;;;;;38.55;23.55;;;;;;;12.82;100.00;100808.66;5076020;28;20024;-70
2023/04/20 08:11:16;;;;;;;43.83;23.95;;;;;;;13.03;100.00;100823.88;5075008;28;20380;-71
2023/04/20 08:13:42;;;;;;;41.15;23.08;;;;;;;13.13;100.00;100820.38;5074981;28;20024;-69
2023/04/20 08:16:07;;;;;;;38.55;22.88;;;;;;;13.32;100.00;100825.88;5076116;28;20028;-69
2023/04/20 08:18:33;;;;;;;38.17;23.00;;;;;;;13.45;100.00;100829.19;5075745;28;20031;-69
2023/04/20 08:20:58;;;;;;;41.80;23.83;;;;;;;13.61;100.00;100825.00;5075943;28;20385;-70
2023/04/20 08:23:26;;;;;;;40.75;22.73;;;;;;;13.74;100.00;100828.31;5075967;28;20426;-70
2023/04/20 08:25:55;;;;;;;38.65;22.98;;;;;;;13.86;100.00;100824.28;5075863;28;20078;-69
2023/04/20 08:28:22;;;;;;;39.97;22.67;;;;;;;14.04;100.00;100831.81;5075872;28;20028;-71
2023/04/20 08:30:47;;;;;;;39.45;23.20;;;;;;;14.25;100.00;100821.88;5075945;28;20024;-70
2023/04/20 08:33:13;;;;;;;37.85;21.67;;;;;;;14.49;100.00;100825.25;5075527;28;20025;-71
2023/04/20 08:35:38;;;;;;;38.50;21.02;;;;;;;14.41;100.00;100836.44;5075725;28;20423;-69
2023/04/20 08:38:04;;;;;;;32.88;19.85;;;;;;;14.32;100.00;100827.19;5075457;28;20032;-70
2023/04/20 08:40:30;;;;;;;32.92;18.85;;;;;;;14.30;100.00;100827.69;5075443;28;20028;-71
2023/04/20 08:42:56;;;;;;;41.63;21.60;;;;;;;14.36;100.00;100840.03;5075370;28;20029;-70
2023/04/20 08:45:22;;;;;;;35.05;20.75;;;;;;;14.22;100.00;100829.44;5075326;28;20040;-71
2023/04/20 08:47:48;;;;;;;37.90;21.27;;;;;;;14.28;100.00;100832.38;5075313;28;20386;-70
2023/04/20 08:50:15;;;;;;;34.60;20.23;;;;;;;14.46;100.00;100825.50;5075234;28;20031;-70
2023/04/20 08:52:40;;;;;;;31.20;19.10;;;;;;;14.66;100.00;100828.34;5074944;28;20098;-71
2023/04/20 08:55:07;;;;;;;32.70;19.27;;;;;;;14.97;100.00;100827.56;5075052;28;20049;-71
2023/04/20 08:57:32;;;;;;;30.35;18.63;;;;;;;15.15;98.09;100833.72;5074648;28;20103;-70
2023/04/20 08:59:57;;;;;;;33.67;20.02;;;;;;;15.13;96.07;100829.75;5075011;28;20190;-70
2023/04/20 09:02:24;;;;;;;29.60;18.23;;;;;;;15.41;95.51;100838.63;5075036;28;20025;-69
2023/04/20 09:05:00;;;;;;;26.65;16.55;;;;;;;15.47;92.18;100830.78;5074328;28;20421;-69
2023/04/20 09:07:25;;;;;;;29.70;16.45;;;;;;;15.43;91.14;100838.88;5074785;28;20470;-71
2023/04/20 09:09:59;;;;;;;28.73;17.85;;;;;;;15.37;92.06;100838.84;5075310;28;20029;-73
2023/04/20 09:12:24;;;;;;;27.02;17.27;;;;;;;15.42;91.38;100837.28;5073649;28;20116;-68
2023/04/20 09:14:51;;;;;;;26.55;17.35;;;;;;;15.36;92.06;100828.63;5074901;28;20557;-69
2023/04/20 09:17:18;;;;;;;24.75;16.63;;;;;;;15.51;91.89;100843.66;5075021;28;20028;-69
2023/04/20 09:19:44;;;;;;;31.33;18.75;;;;;;;15.36;91.29;100837.28;5074814;28;20021;-69
2023/04/20 09:22:10;;;;;;;30.08;17.75;;;;;;;15.43;92.28;100844.63;5074879;28;20062;-69
2023/04/20 09:24:37;;;;;;;24.75;15.95;;;;;;;15.56;91.60;100842.88;5074833;28;20028;-67
2023/04/20 09:27:17;;;;;;;29.48;17.50;;;;;;;15.67;90.59;100845.84;5074959;28;20531;-69
2023/04/20 09:29:42;;;;;;;26.95;17.95;;;;;;;15.66;90.15;100844.28;5073188;28;20028;-68
2023/04/20 09:32:21;;;;;;;29.13;18.02;;;;;;;15.90;89.64;100846.78;5074657;28;20112;-68
2023/04/20 09:34:47;;;;;;;27.98;17.27;;;;;;;16.35;88.42;100835.41;5074513;28;20016;-70
2023/04/20 09:37:15;;;;;;;30.30;17.95;;;;;;;16.60;86.04;100848.84;5074591;28;20096;-69
2023/04/20 09:39:42;;;;;;;30.70;18.67;;;;;;;16.72;84.45;100843.88;5074311;28;20052;-69
2023/04/20 09:42:10;;;;;;;25.92;16.73;;;;;;;16.65;84.05;100827.09;5074386;28;20051;-68
2023/04/20 09:44:37;;;;;;;31.45;18.35;;;;;;;16.85;83.80;100827.63;5073866;28;20096;-68
2023/04/20 09:47:03;;;;;;;30.73;18.75;;;;;;;17.15;83.35;100824.19;5072767;28;20035;-69
2023/04/20 09:49:29;;;;;;;29.40;19.38;;;;;;;17.54;80.66;100822.06;5073218;28;20020;-69
2023/04/20 09:51:55;;;;;;;28.58;17.75;;;;;;;18.05;79.83;100825.56;5074167;28;20044;-74
2023/04/20 09:54:21;;;;;;;31.65;20.58;;;;;;;18.28;74.68;100824.13;5067611;28;20025;-74
2023/04/20 09:56:48;;;;;;;30.98;19.55;;;;;;;18.53;74.61;100825.06;5055928;28;20027;-74
2023/04/20 09:59:16;;;;;;;28.85;19.23;;;;;;;18.87;72.07;100831.41;5073735;28;20108;-76
2023/04/20 10:01:41;;;;;;;30.60;20.48;;;;;;;18.90;66.80;100819.53;5072828;28;20028;-75
2023/04/20 10:04:09;;;;;;;33.30;22.17;;;;;;;;;;5072531;28;20020;-74
2023/04/20 10:06:35;;;;;;;38.95;23.65;;;;;;;19.01;69.35;100813.66;5073641;28;20497;-73
2023/04/20 10:09:02;;;;;;;36.40;22.98;;;;;;;19.00;68.29;100812.06;5073321;28;20142;-73
2023/04/20 10:11:32;;;;;;;37.60;22.58;;;;;;;18.62;68.00;100816.81;5073830;28;20032;-73
2023/04/20 10:14:12;;;;;;;35.03;22.23;;;;;;;18.63;70.74;100808.94;5073940;28;20050;-72
2023/04/20 10:16:38;;;;;;;33.50;21.45;;;;;;;18.63;69.76;100812.63;5073622;28;20469;-74
2023/04/20 10:19:03;;;;;;;36.30;22.02;;;;;;;18.58;70.89;100801.84;5055755;28;20020;-73
2023/04/20 10:21:31;;;;;;;40.17;23.65;;;;;;;18.65;71.30;100809.97;5073737;28;20025;-74
2023/04/20 10:23:59;;;;;;;37.25;21.92;;;;;;;18.74;69.56;100805.16;5073755;28;20020;-72
2023/04/20 10:26:46;;;;;;;34.55;21.65;;;;;;;18.90;69.22;100810.03;5073289;28;20074;-74
2023/04/20 10:29:23;;;;;;;35.17;20.50;;;;;;;18.88;68.71;100809.78;5072512;28;20031;-75
2023/04/20 10:31:49;;;;;;;37.67;20.35;;;;;;;18.80;66.37;100812.50;5071996;28;20028;-74
2023/04/20 10:34:15;;;;;;;37.95;21.73;;;;;;;18.93;67.73;100812.66;5072228;28;20130;-76
2023/04/20 10:36:41;;;;;;;32.97;20.90;;;;;;;19.12;68.30;100806.94;5071792;28;20017;-72
2023/04/20 10:39:14;;;;;;;33.53;21.45;;;;;;;19.45;67.79;100800.06;5071868;28;20032;-74
2023/04/20 10:41:53;;;;;;;36.97;21.85;;;;;;;19.77;70.55;100794.41;5073210;28;20103;-75
2023/04/20 10:44:19;;;;;;;37.67;21.17;;;;;;;20.16;68.28;100803.44;5073155;28;20017;-71
2023/04/20 10:46:48;;;;;;;33.60;22.42;;;;;;;20.52;67.93;100785.75;5073407;28;20036;-73
2023/04/20 10:49:13;;;;;;;37.72;23.48;;;;;;;20.52;61.97;100783.66;5073167;28;20024;-73
2023/04/20 10:51:46;;;;;;;34.17;21.33;;;;;;;20.48;64.17;100783.19;5073241;28;21533;-71
2023/04/20 10:54:11;;;;;;;32.25;21.48;;;;;;;20.41;65.55;100778.00;5073412;28;20139;-73
2023/04/20 10:56:45;;;;;;;29.38;19.65;;;;;;;20.39;64.83;100781.47;5073254;28;20055;-73
2023/04/20 10:59:12;;;;;;;26.10;18.10;;;;;;;20.08;60.15;100784.31;5073198;28;20024;-74
2023/04/20 11:01:39;;;;;;;27.77;16.25;;;;;;;19.84;62.35;100783.00;5072774;28;20097;-74
2023/04/20 11:04:05;;;;;;;28.38;17.88;;;;;;;19.66;60.23;100785.88;5055045;28;20037;-75
2023/04/20 11:06:31;;;;;;;31.05;17.63;;;;;;;19.43;58.71;100791.13;5073064;28;20032;-74